Time;durP1;ratioP1;P1;durP2;ratioP2;P2;SDS_P1;SDS_P2;PMS_P1;PMS_P2;Temp;Humidity;BMP_temperature;BMP_pressure;BME280_temperature;BME280_humidity;BME280_pressure;Samples;Min_cycle;Max_cycle;Signal;HPM_P1;HPM_P2
2022/07/22 00:02:13;;;;;;;11.05;5.40;;;;;;;24.04;42.27;94991.75;4985783;28;20207;-67
2022/07/22 00:04:38;;;;;;;8.90;5.25;;;;;;;23.96;42.87;94979.50;4978271;28;20624;-66
2022/07/22 00:07:04;;;;;;;8.52;5.57;;;;;;;23.97;43.07;94991.06;4977640;28;20723;-66
2022/07/22 00:09:30;;;;;;;10.75;5.65;;;;;;;23.96;42.95;94986.75;4982364;28;20216;-67
2022/07/22 00:11:55;;;;;;;7.63;4.63;;;;;;;23.98;42.62;94982.78;4977330;28;20316;-66
2022/07/22 00:14:21;;;;;;;7.32;4.47;;;;;;;23.83;42.65;94987.81;4980462;28;20659;-67
2022/07/22 00:16:46;;;;;;;8.18;4.97;;;;;;;23.66;43.33;94989.56;4980852;28;20219;-67
2022/07/22 00:19:12;;;;;;;8.60;4.68;;;;;;;23.69;43.07;94991.78;4983133;28;20284;-67
2022/07/22 00:21:38;;;;;;;7.68;4.78;;;;;;;23.80;42.80;94993.66;4980608;28;20226;-66
2022/07/22 00:24:04;;;;;;;8.00;5.03;;;;;;;23.78;43.17;94995.75;4976864;28;20258;-66
2022/07/22 00:26:30;;;;;;;10.48;5.18;;;;;;;23.77;43.10;94997.63;4986307;28;20220;-66
2022/07/22 00:28:55;;;;;;;6.18;4.63;;;;;;;23.61;43.48;94994.81;4978574;28;20211;-66
2022/07/22 00:31:21;;;;;;;9.00;4.97;;;;;;;23.62;43.48;94997.25;4989672;28;20202;-67
2022/07/22 00:33:46;;;;;;;10.80;4.53;;;;;;;23.63;43.34;94998.91;4983919;28;20232;-66
2022/07/22 00:36:12;;;;;;;8.55;4.75;;;;;;;23.50;43.14;94993.75;4978304;28;20263;-66
2022/07/22 00:38:38;;;;;;;6.47;4.28;;;;;;;23.51;42.55;94996.19;4979725;28;20231;-66
2022/07/22 00:41:03;;;;;;;4.50;4.10;;;;;;;23.54;41.44;95001.09;4985398;28;20208;-66
2022/07/22 00:43:49;;;;;;;5.57;3.92;;;;;;;23.51;41.24;95006.13;4986082;28;20264;-66
2022/07/22 00:46:14;;;;;;;4.82;4.40;;;;;;;23.50;41.33;95004.50;4986159;28;20219;-66
2022/07/22 00:48:40;;;;;;;6.32;4.25;;;;;;;23.58;40.98;95006.84;4989604;28;20222;-67
2022/07/22 00:51:05;;;;;;;7.20;4.03;;;;;;;23.52;40.73;95000.53;4967386;28;20223;-66
2022/07/22 00:53:31;;;;;;;3.90;3.50;;;;;;;23.47;40.72;95003.09;4983492;28;20496;-66
2022/07/22 00:55:56;;;;;;;8.05;3.90;;;;;;;23.41;40.68;95000.50;4977158;28;20212;-66
2022/07/22 00:58:22;;;;;;;4.60;3.95;;;;;;;23.30;40.51;94994.88;4980599;28;20222;-66
2022/07/22 01:00:47;;;;;;;5.85;3.60;;;;;;;23.37;40.65;94997.47;4977656;28;20227;-66
2022/07/22 01:03:13;;;;;;;5.22;4.00;;;;;;;23.28;40.74;95001.53;4981801;28;20228;-66
2022/07/22 01:05:39;;;;;;;4.85;3.88;;;;;;;23.27;40.87;94997.22;4979148;28;20561;-66
2022/07/22 01:08:06;;;;;;;5.47;3.38;;;;;;;23.14;41.09;94992.88;4980137;28;20691;-66
2022/07/22 01:10:31;;;;;;;6.65;3.88;;;;;;;23.18;40.81;94996.75;4978385;28;20310;-66
2022/07/22 01:12:56;;;;;;;8.60;3.58;;;;;;;23.03;41.15;94993.69;4978974;28;20262;-66
2022/07/22 01:15:22;;;;;;;5.50;3.70;;;;;;;22.94;41.65;94990.50;4976681;28;20242;-66
2022/07/22 01:17:47;;;;;;;4.88;3.75;;;;;;;22.95;41.47;94996.66;4963563;28;20235;-66
2022/07/22 01:20:13;;;;;;;6.32;3.65;;;;;;;22.98;41.29;94996.22;4979477;28;20219;-66
2022/07/22 01:22:38;;;;;;;7.40;3.83;;;;;;;23.01;41.32;95007.31;4990695;28;20209;-66
2022/07/22 01:25:04;;;;;;;7.82;3.88;;;;;;;22.79;41.85;95004.31;4986115;28;20235;-66
2022/07/22 01:27:30;;;;;;;4.78;3.60;;;;;;;22.67;42.35;95000.78;4979608;28;20220;-66
2022/07/22 01:29:55;;;;;;;5.03;3.15;;;;;;;22.64;42.21;94999.38;4977885;28;20228;-66
2022/07/22 01:32:21;;;;;;;5.57;4.03;;;;;;;22.69;42.24;95001.34;4984905;28;20341;-67
2022/07/22 01:34:46;;;;;;;5.85;3.67;;;;;;;22.77;41.68;94993.00;4978350;28;20211;-67
2022/07/22 01:37:12;;;;;;;4.18;3.47;;;;;;;22.85;41.68;94998.06;4984886;28;20231;-66
2022/07/22 01:39:37;;;;;;;6.18;3.85;;;;;;;22.77;41.74;94987.63;4985620;28;20231;-66
2022/07/22 01:42:03;;;;;;;6.30;3.92;;;;;;;22.86;41.56;94991.63;4977963;28;20291;-66
2022/07/22 01:44:30;;;;;;;5.70;3.90;;;;;;;22.83;41.51;94989.41;4973847;28;20223;-67
2022/07/22 01:46:58;;;;;;;4.75;3.63;;;;;;;22.70;42.07;94994.97;4978839;28;20222;-67
2022/07/22 01:49:24;;;;;;;4.38;3.90;;;;;;;22.59;42.38;94996.56;4973853;28;20254;-66
2022/07/22 01:51:49;;;;;;;5.78;4.00;;;;;;;22.59;42.02;94999.25;4979389;28;20226;-66
2022/07/22 01:54:15;;;;;;;5.50;4.05;;;;;;;22.53;42.29;94996.63;4980948;28;20233;-66
2022/07/22 01:56:40;;;;;;;5.55;3.90;;;;;;;22.60;42.12;94998.19;4985534;28;20219;-66
2022/07/22 01:59:07;;;;;;;6.45;4.18;;;;;;;22.50;42.99;95000.56;4984912;28;20222;-66
2022/07/22 02:01:33;;;;;;;5.30;3.97;;;;;;;22.49;42.65;94993.59;4977465;28;20290;-66
2022/07/22 02:03:58;;;;;;;5.55;4.18;;;;;;;22.45;43.02;94992.41;4973395;28;20299;-66
2022/07/22 02:06:23;;;;;;;6.63;3.97;;;;;;;22.27;43.35;94998.63;4983048;28;20231;-66
2022/07/22 02:08:49;;;;;;;7.35;4.00;;;;;;;22.35;42.70;95001.00;4982172;28;20691;-66
2022/07/22 02:11:14;;;;;;;7.88;3.72;;;;;;;22.42;42.56;95007.06;4977499;28;20678;-67
2022/07/22 02:13:40;;;;;;;7.22;3.80;;;;;;;22.32;42.46;95003.28;4982348;28;20336;-67
2022/07/22 02:16:05;;;;;;;5.07;4.68;;;;;;;22.27;43.34;95008.53;4976340;28;20227;-66
2022/07/22 02:18:31;;;;;;;6.05;4.18;;;;;;;22.28;43.76;95016.31;4976031;28;20251;-67
2022/07/22 02:20:56;;;;;;;6.25;4.57;;;;;;;22.33;44.21;95007.63;4974827;28;20226;-67
2022/07/22 02:23:22;;;;;;;5.10;4.30;;;;;;;22.24;44.58;95018.63;4979821;28;20223;-67
2022/07/22 02:25:47;;;;;;;5.93;4.68;;;;;;;22.22;45.61;95020.72;4978008;28;20207;-67
2022/07/22 02:28:13;;;;;;;6.63;5.00;;;;;;;22.05;45.47;95019.63;4990691;28;20212;-66
2022/07/22 02:30:39;;;;;;;10.38;4.20;;;;;;;21.93;46.06;95014.22;4986630;28;20303;-66
2022/07/22 02:33:05;;;;;;;6.93;4.57;;;;;;;22.09;45.89;95018.16;4982943;28;20223;-67
2022/07/22 02:35:30;;;;;;;6.20;4.28;;;;;;;22.00;45.99;95017.66;4985976;28;20223;-66
2022/07/22 02:37:55;;;;;;;8.15;4.78;;;;;;;22.04;46.20;95023.34;4979095;28;20204;-66
2022/07/22 02:40:21;;;;;;;6.38;4.53;;;;;;;21.90;46.29;95011.97;4985348;28;20247;-67
2022/07/22 02:42:46;;;;;;;6.35;4.95;;;;;;;21.83;46.61;95011.22;4985112;28;20231;-67
2022/07/22 02:45:12;;;;;;;6.90;4.88;;;;;;;21.74;46.99;95017.91;4984757;28;20253;-67
2022/07/22 02:47:53;;;;;;;6.60;4.65;;;;;;;21.83;46.71;95011.22;4986068;28;20231;-66
2022/07/22 02:50:19;;;;;;;6.93;5.03;;;;;;;22.00;45.59;95016.84;4976039;28;20319;-67
2022/07/22 02:52:44;;;;;;;7.55;4.88;;;;;;;21.92;46.26;95012.59;4982510;28;20311;-66
2022/07/22 02:55:10;;;;;;;8.27;4.80;;;;;;;22.02;45.95;95010.22;4981382;28;20228;-67
2022/07/22 02:57:36;;;;;;;8.40;5.10;;;;;;;21.93;46.73;95014.22;4979746;28;20228;-66
2022/07/22 03:00:03;;;;;;;8.05;4.80;;;;;;;21.65;47.56;95020.06;4977335;28;20232;-67
2022/07/22 03:02:29;;;;;;;10.02;5.88;;;;;;;21.70;47.37;95016.72;4986953;28;20231;-67
2022/07/22 03:04:55;;;;;;;10.63;6.15;;;;;;;21.72;47.20;95018.13;4988842;28;20321;-66
2022/07/22 03:07:20;;;;;;;10.18;6.18;;;;;;;21.54;47.63;95016.25;4987652;28;20286;-67
2022/07/22 03:09:46;;;;;;;9.07;5.43;;;;;;;21.64;47.61;95017.59;4994074;28;20211;-67
2022/07/22 03:12:11;;;;;;;9.55;5.47;;;;;;;21.62;47.57;95015.13;4978795;28;20223;-66
2022/07/22 03:14:37;;;;;;;7.18;4.97;;;;;;;21.51;47.98;95011.31;4977412;28;20238;-66
2022/07/22 03:17:02;;;;;;;10.60;5.55;;;;;;;21.46;48.30;95019.19;4979297;28;20200;-66
2022/07/22 03:19:28;;;;;;;7.82;5.50;;;;;;;21.50;48.48;95020.41;4984106;28;20245;-67
2022/07/22 03:21:53;;;;;;;5.72;5.07;;;;;;;21.49;48.44;95013.41;4994265;28;20223;-67
2022/07/22 03:24:19;;;;;;;5.82;5.15;;;;;;;21.49;48.58;95015.25;4986141;28;20233;-67
2022/07/22 03:26:44;;;;;;;9.15;5.18;;;;;;;21.61;48.21;95018.03;4995627;28;20801;-66
2022/07/22 03:29:09;;;;;;;6.35;5.28;;;;;;;21.52;48.42;95006.81;4982423;28;20192;-66
2022/07/22 03:31:35;;;;;;;5.97;5.32;;;;;;;21.60;48.37;95014.56;4985153;28;20243;-67
2022/07/22 03:34:00;;;;;;;6.28;5.30;;;;;;;21.58;48.29;95020.13;4980619;28;20315;-65
2022/07/22 03:36:28;;;;;;;10.52;6.65;;;;;;;21.60;48.16;95014.56;4988264;28;20242;-67
2022/07/22 03:38:54;;;;;;;8.20;5.93;;;;;;;21.56;48.61;95024.03;4980113;28;20239;-67
2022/07/22 03:41:20;;;;;;;8.95;5.93;;;;;;;21.40;49.35;95027.28;4983550;28;20235;-67
2022/07/22 03:43:45;;;;;;;9.25;5.60;;;;;;;21.53;48.60;95025.31;4981543;28;20204;-67
2022/07/22 03:46:11;;;;;;;8.85;5.40;;;;;;;21.69;48.11;95031.13;4978744;28;20219;-66
2022/07/22 03:48:36;;;;;;;6.18;5.28;;;;;;;21.54;48.06;95029.63;4978581;28;20280;-66
2022/07/22 03:51:02;;;;;;;12.32;5.18;;;;;;;21.63;47.62;95037.38;4982359;28;20280;-66
2022/07/22 03:53:27;;;;;;;7.45;4.72;;;;;;;21.71;47.35;95035.22;5002772;28;20292;-66
2022/07/22 03:55:53;;;;;;;10.50;5.55;;;;;;;21.74;46.99;95033.97;4991201;28;20735;-66
2022/07/22 03:58:18;;;;;;;7.47;5.20;;;;;;;21.69;47.39;95039.97;4986191;28;20286;-66
2022/07/22 04:00:44;;;;;;;10.38;5.63;;;;;;;21.40;48.32;95037.97;4979080;28;20255;-66
2022/07/22 04:03:09;;;;;;;6.78;4.82;;;;;;;21.58;48.00;95032.69;4985309;28;20227;-70
2022/07/22 04:05:35;;;;;;;6.90;5.32;;;;;;;21.34;49.86;95043.13;4976138;28;20238;-68
2022/07/22 04:08:00;;;;;;;6.90;5.07;;;;;;;21.36;50.05;95050.94;4983856;28;20306;-69
2022/07/22 04:10:26;;;;;;;10.23;6.40;;;;;;;21.68;49.32;95050.88;4979954;28;20208;-70
2022/07/22 04:12:51;;;;;;;6.75;5.90;;;;;;;21.82;48.63;95043.59;4988504;28;20251;-70
2022/07/22 04:15:17;;;;;;;9.48;6.32;;;;;;;21.77;48.74;95050.41;4984088;28;20718;-70
2022/07/22 04:17:42;;;;;;;7.28;6.00;;;;;;;21.52;49.06;95052.28;4978748;28;20235;-70
2022/07/22 04:20:08;;;;;;;9.77;6.45;;;;;;;21.31;49.70;95050.78;4977809;28;20215;-72
2022/07/22 04:22:33;;;;;;;7.78;6.22;;;;;;;21.43;49.01;95054.41;4987929;28;20247;-69
2022/07/22 04:24:59;;;;;;;10.23;6.60;;;;;;;21.62;48.37;95051.78;4976942;28;20278;-70
2022/07/22 04:27:24;;;;;;;12.82;7.40;;;;;;;21.44;48.37;95053.38;4976665;28;20483;-70
2022/07/22 04:29:50;;;;;;;9.63;7.32;;;;;;;21.47;48.43;95062.84;4982284;28;20220;-69
2022/07/22 04:32:15;;;;;;;9.38;6.65;;;;;;;21.25;48.81;95065.00;4986880;28;20285;-69
2022/07/22 04:34:41;;;;;;;9.65;6.93;;;;;;;21.59;48.43;95064.56;4984259;28;20214;-71
2022/07/22 04:37:07;;;;;;;7.65;6.63;;;;;;;22.22;46.76;95052.03;4983342;28;20233;-70
2022/07/22 04:39:33;;;;;;;13.88;7.22;;;;;;;22.13;46.78;95059.53;4979059;28;20228;-70
2022/07/22 04:41:58;;;;;;;10.00;6.68;;;;;;;21.98;47.11;95067.91;4976912;28;20256;-70
2022/07/22 04:44:24;;;;;;;7.57;6.55;;;;;;;21.95;47.01;95071.03;4978218;28;20223;-70
2022/07/22 04:46:49;;;;;;;7.72;6.25;;;;;;;21.98;46.91;95072.44;4985619;28;20214;-70
2022/07/22 04:49:14;;;;;;;9.82;7.07;;;;;;;22.07;47.05;95071.09;4980275;28;20235;-69
2022/07/22 04:51:40;;;;;;;9.20;6.78;;;;;;;22.08;47.27;95083.47;4992284;28;20275;-71
2022/07/22 04:54:06;;;;;;;10.43;7.40;;;;;;;22.10;46.92;95077.88;4981596;28;20224;-70
2022/07/22 04:56:31;;;;;;;9.40;6.70;;;;;;;22.19;46.71;95081.94;4979692;28;20219;-73
2022/07/22 04:58:57;;;;;;;10.05;6.50;;;;;;;22.20;46.98;95080.91;4987135;28;20211;-73
2022/07/22 05:01:22;;;;;;;10.43;7.97;;;;;;;22.24;46.62;95074.06;4981269;28;20214;-73
2022/07/22 05:03:47;;;;;;;12.95;8.20;;;;;;;22.25;46.34;95078.38;4987410;28;20219;-71
2022/07/22 05:06:13;;;;;;;9.70;8.45;;;;;;;22.28;46.65;95074.44;4985373;28;20219;-73
2022/07/22 05:08:39;;;;;;;10.07;7.65;;;;;;;22.24;46.03;95080.25;4978653;28;20235;-74
2022/07/22 05:11:05;;;;;;;11.30;7.55;;;;;;;22.55;45.48;95072.25;4980712;28;20211;-73
2022/07/22 05:13:30;;;;;;;10.93;7.90;;;;;;;22.67;44.79;95071.28;4982306;28;20206;-74
2022/07/22 05:15:56;;;;;;;9.32;7.43;;;;;;;22.72;45.34;95080.50;4974959;28;20236;-74
2022/07/22 05:18:21;;;;;;;7.78;7.03;;;;;;;22.75;44.92;95072.84;4979333;28;20225;-72
2022/07/22 05:20:46;;;;;;;9.35;7.38;;;;;;;22.90;44.66;95070.53;4981868;28;20234;-72
2022/07/22 05:23:12;;;;;;;8.00;7.20;;;;;;;22.90;45.00;95072.41;4990297;28;20254;-72
2022/07/22 05:25:37;;;;;;;9.25;7.45;;;;;;;22.79;44.94;95078.56;4977919;28;20208;-71
2022/07/22 05:28:03;;;;;;;10.43;7.65;;;;;;;22.61;44.54;95085.59;4988621;28;20236;-69
2022/07/22 05:30:28;;;;;;;11.27;6.80;;;;;;;22.66;44.00;95075.00;4981641;28;20254;-72
2022/07/22 05:32:54;;;;;;;9.48;6.75;;;;;;;22.82;43.54;95083.47;4982314;28;20223;-72
2022/07/22 05:35:20;;;;;;;7.75;6.38;;;;;;;22.97;43.53;95083.91;4976714;28;20307;-71
2022/07/22 05:37:46;;;;;;;12.43;7.53;;;;;;;23.00;43.63;95091.50;4979704;28;20216;-71
2022/07/22 05:40:12;;;;;;;6.53;5.93;;;;;;;23.07;43.24;95086.88;4985347;28;20258;-72
2022/07/22 05:42:37;;;;;;;7.65;6.72;;;;;;;23.07;43.95;95084.19;4985505;28;20243;-72
2022/07/22 05:45:03;;;;;;;9.60;6.50;;;;;;;23.08;43.85;95083.13;4984645;28;20227;-68
2022/07/22 05:47:28;;;;;;;8.77;6.03;;;;;;;23.15;43.26;95077.69;4976558;28;20224;-67
2022/07/22 05:49:54;;;;;;;11.23;6.70;;;;;;;22.90;44.09;95086.63;4976545;28;20211;-71
2022/07/22 05:52:20;;;;;;;12.13;6.38;;;;;;;23.13;43.25;95081.66;4971340;28;20234;-70
2022/07/22 05:54:45;;;;;;;11.80;6.22;;;;;;;23.30;43.25;95080.75;4981015;28;20238;-73
2022/07/22 05:57:10;;;;;;;14.93;6.82;;;;;;;23.46;42.87;95081.13;4986515;28;20222;-70
2022/07/22 05:59:36;;;;;;;11.45;7.20;;;;;;;23.54;42.62;95086.97;4980837;28;20231;-70
2022/07/22 06:02:03;;;;;;;11.20;6.82;;;;;;;23.56;42.49;95084.06;4973822;28;20203;-72
2022/07/22 06:04:28;;;;;;;10.02;6.70;;;;;;;23.63;42.88;95082.09;4969281;28;20188;-70
2022/07/22 06:06:53;;;;;;;12.88;6.68;;;;;;;23.70;42.62;95080.13;4973013;28;20223;-68
2022/07/22 06:09:19;;;;;;;12.80;5.93;;;;;;;23.72;42.80;95083.41;4975903;28;20248;-67
2022/07/22 06:11:45;;;;;;;12.48;6.50;;;;;;;23.77;42.51;95077.38;4967795;28;20260;-70
2022/07/22 06:14:10;;;;;;;8.55;6.30;;;;;;;23.82;42.28;95085.53;4974592;28;20375;-67
2022/07/22 06:16:36;;;;;;;7.75;6.35;;;;;;;24.01;41.60;95085.44;4974508;28;20258;-71
2022/07/22 06:19:02;;;;;;;11.07;7.57;;;;;;;24.11;41.80;95086.47;4965093;28;20223;-69
2022/07/22 06:21:27;;;;;;;8.93;6.32;;;;;;;24.13;41.74;95084.34;4970609;28;20275;-65
2022/07/22 06:23:52;;;;;;;9.40;7.45;;;;;;;24.05;42.43;95082.03;4971922;28;20227;-67
2022/07/22 06:26:18;;;;;;;9.00;6.22;;;;;;;24.24;42.07;95085.38;4971005;28;20539;-67
2022/07/22 06:28:44;;;;;;;9.80;6.25;;;;;;;24.30;42.58;95083.63;4974317;28;20262;-70
2022/07/22 06:31:09;;;;;;;10.43;7.07;;;;;;;24.29;43.11;95072.06;4983156;28;20219;-69
2022/07/22 06:33:35;;;;;;;9.13;6.43;;;;;;;24.32;42.48;95084.22;4984177;28;20273;-69
2022/07/22 06:36:01;;;;;;;9.05;6.53;;;;;;;24.32;41.91;95082.34;4985183;28;20220;-68
2022/07/22 06:38:26;;;;;;;8.10;7.25;;;;;;;24.38;42.15;95076.03;4979953;28;20231;-71
2022/07/22 06:40:51;;;;;;;8.45;6.30;;;;;;;24.48;42.57;95080.84;4981251;28;20208;-65
2022/07/22 06:43:17;;;;;;;11.27;6.25;;;;;;;24.59;42.08;95085.38;4979379;28;20654;-66
2022/07/22 06:45:42;;;;;;;10.57;6.72;;;;;;;24.61;42.00;95079.75;4976253;28;20235;-65
2022/07/22 06:48:08;;;;;;;9.10;6.03;;;;;;;24.79;41.05;95079.59;4989044;28;20306;-67
2022/07/22 06:50:33;;;;;;;12.00;6.57;;;;;;;24.73;40.52;95077.88;4982056;28;20219;-67
2022/07/22 06:52:59;;;;;;;8.20;5.85;;;;;;;24.83;40.01;95082.59;4976275;28;20208;-68
2022/07/22 06:55:24;;;;;;;11.20;5.68;;;;;;;24.96;39.05;95076.94;4976559;28;20199;-67
2022/07/22 06:57:49;;;;;;;11.38;5.78;;;;;;;25.08;39.10;95075.03;4975662;28;20634;-68
2022/07/22 07:00:15;;;;;;;11.15;5.88;;;;;;;25.16;39.30;95081.13;4975608;28;20236;-66
2022/07/22 07:02:41;;;;;;;10.82;5.75;;;;;;;25.26;39.01;95075.91;4975544;28;20234;-67
2022/07/22 07:05:07;;;;;;;8.40;6.10;;;;;;;25.29;39.19;95081.63;4979526;28;20203;-67
2022/07/22 07:07:32;;;;;;;8.90;5.68;;;;;;;25.45;37.86;95084.59;4982437;28;20232;-67
2022/07/22 07:09:58;;;;;;;10.80;5.90;;;;;;;25.50;37.89;95080.13;4980265;28;20317;-66
2022/07/22 07:12:23;;;;;;;12.95;6.05;;;;;;;25.55;37.72;95084.75;4983946;28;20714;-67
2022/07/22 07:14:49;;;;;;;9.65;5.75;;;;;;;25.69;37.02;95088.78;4983599;28;20274;-69
2022/07/22 07:17:15;;;;;;;9.45;5.75;;;;;;;25.77;36.97;95084.84;4986517;28;20218;-66
2022/07/22 07:19:41;;;;;;;9.05;5.40;;;;;;;25.86;36.59;95090.69;4982143;28;20222;-73
2022/07/22 07:22:07;;;;;;;12.40;6.40;;;;;;;25.80;36.54;95087.06;4985603;28;20227;-67
2022/07/22 07:24:32;;;;;;;7.60;5.15;;;;;;;25.86;36.85;95079.91;4991662;28;20228;-67
2022/07/22 07:26:57;;;;;;;10.35;5.65;;;;;;;25.97;36.59;95087.06;4986077;28;20594;-65
2022/07/22 07:29:23;;;;;;;8.80;5.40;;;;;;;26.01;37.14;95088.22;4990629;28;20219;-64
2022/07/22 07:31:48;;;;;;;11.00;5.38;;;;;;;26.14;35.94;95087.03;4979198;28;20509;-67
2022/07/22 07:34:14;;;;;;;8.45;6.05;;;;;;;26.22;36.65;95086.63;4979950;28;20274;-66
2022/07/22 07:36:40;;;;;;;9.75;5.30;;;;;;;26.18;36.58;95083.59;4979367;28;20243;-63
2022/07/22 07:39:05;;;;;;;8.68;5.90;;;;;;;26.25;37.34;95088.84;4974148;28;20267;-67
2022/07/22 07:41:31;;;;;;;12.57;5.72;;;;;;;26.32;36.10;95084.06;4966397;28;20239;-65
2022/07/22 07:43:56;;;;;;;7.15;6.05;;;;;;;26.29;36.60;95079.19;4979658;28;20208;-65
2022/07/22 07:46:22;;;;;;;9.95;6.20;;;;;;;26.39;35.86;95078.50;4985293;28;20206;-67
2022/07/22 07:48:48;;;;;;;6.22;5.30;;;;;;;26.48;35.20;95085.09;4978274;28;20244;-67
2022/07/22 07:51:14;;;;;;;7.03;5.72;;;;;;;26.52;35.30;95094.34;4980930;28;20230;-68
2022/07/22 07:53:39;;;;;;;11.88;5.35;;;;;;;26.55;35.66;95077.69;4984286;28;20236;-66
2022/07/22 07:56:05;;;;;;;7.18;6.07;;;;;;;26.70;35.47;95087.00;4980451;28;20208;-67
2022/07/22 07:58:30;;;;;;;7.85;4.88;;;;;;;26.72;35.58;95091.09;4982086;28;20211;-67
2022/07/22 08:00:56;;;;;;;9.00;5.40;;;;;;;26.72;34.53;95084.88;4984846;28;20222;-65
2022/07/22 08:03:21;;;;;;;10.40;4.82;;;;;;;26.75;34.96;95082.50;4987647;28;20223;-66
2022/07/22 08:05:47;;;;;;;6.43;4.80;;;;;;;26.79;34.16;95089.03;4982600;28;20228;-68
2022/07/22 08:08:12;;;;;;;6.15;4.28;;;;;;;26.86;33.83;95088.81;4983251;28;20269;-70
2022/07/22 08:10:38;;;;;;;8.20;4.80;;;;;;;26.85;33.49;95087.19;4979104;28;20206;-65
2022/07/22 08:13:04;;;;;;;6.53;4.90;;;;;;;26.89;33.80;95082.09;4982707;28;20290;-65
2022/07/22 08:15:29;;;;;;;6.82;4.55;;;;;;;26.94;32.93;95084.88;4979019;28;20236;-64
2022/07/22 08:17:56;;;;;;;6.18;5.10;;;;;;;27.02;33.48;95085.25;4983486;28;20246;-68
2022/07/22 08:20:23;;;;;;;8.30;4.68;;;;;;;27.09;34.19;95087.75;4982789;28;20255;-67
2022/07/22 08:22:50;;;;;;;8.38;4.68;;;;;;;27.17;32.72;95083.81;4986011;28;20286;-68
2022/07/22 08:25:15;;;;;;;10.75;5.38;;;;;;;27.15;33.02;95081.31;4977036;28;20228;-69
2022/07/22 08:27:41;;;;;;;6.18;4.70;;;;;;;27.20;33.56;95089.50;4975127;28;20289;-67
2022/07/22 08:30:06;;;;;;;7.25;4.45;;;;;;;27.30;33.37;95085.28;4976428;28;20224;-68
2022/07/22 08:32:33;;;;;;;8.93;4.65;;;;;;;27.40;32.15;95090.75;4984997;28;20223;-67
2022/07/22 08:34:58;;;;;;;4.38;3.97;;;;;;;27.39;31.94;95086.44;4987463;28;20205;-68
2022/07/22 08:37:24;;;;;;;5.95;3.72;;;;;;;27.39;31.29;95086.44;4983631;28;20203;-65
2022/07/22 08:39:49;;;;;;;7.35;3.85;;;;;;;27.45;31.10;95085.41;4978689;28;20711;-67
2022/07/22 08:42:15;;;;;;;7.22;4.43;;;;;;;27.42;33.28;95086.75;4977470;28;20228;-66
2022/07/22 08:44:41;;;;;;;5.43;4.07;;;;;;;27.50;31.28;95090.88;4982204;28;20238;-67
2022/07/22 08:47:06;;;;;;;5.28;4.03;;;;;;;27.56;31.90;95089.88;4974511;28;20302;-68
2022/07/22 08:49:32;;;;;;;5.63;4.05;;;;;;;27.51;32.66;95091.72;4980389;28;20196;-66
2022/07/22 08:51:57;;;;;;;6.13;4.35;;;;;;;27.55;31.01;95085.50;4976155;28;20223;-67
2022/07/22 08:54:23;;;;;;;4.95;4.43;;;;;;;27.64;30.59;95080.44;4978836;28;20228;-69
2022/07/22 08:56:50;;;;;;;4.25;3.85;;;;;;;27.63;30.10;95097.75;4981922;28;20219;-69
2022/07/22 08:59:16;;;;;;;5.10;4.25;;;;;;;27.75;30.16;95084.06;4986529;28;20235;-70
2022/07/22 09:02:04;;;;;;;8.18;7.28;;;;;;;27.81;32.28;95099.28;4978481;28;20200;-67
2022/07/22 09:04:31;;;;;;;7.72;4.45;;;;;;;27.79;32.74;95091.38;4977872;28;20224;-67
2022/07/22 09:06:57;;;;;;;5.20;4.43;;;;;;;27.82;32.52;95090.09;4982139;28;20291;-67
2022/07/22 09:09:33;;;;;;;5.70;4.57;;;;;;;27.94;33.44;95088.03;4980428;28;20240;-67
2022/07/22 09:12:08;;;;;;;6.32;4.70;;;;;;;27.98;32.17;95089.13;4978697;28;20311;-67
2022/07/22 09:14:54;;;;;;;6.47;4.50;;;;;;;28.05;30.43;95097.03;4976543;28;20235;-66
2022/07/22 09:17:34;;;;;;;8.57;4.60;;;;;;;28.11;30.56;95098.69;4972681;28;20220;-66
2022/07/22 09:20:00;;;;;;;5.97;4.53;;;;;;;28.07;29.84;95101.09;4973417;28;20298;-66
2022/07/22 09:22:40;;;;;;;6.97;4.53;;;;;;;28.09;30.21;95098.13;4977122;28;20274;-68
2022/07/22 09:25:21;;;;;;;5.75;4.50;;;;;;;28.11;30.44;95093.28;4974515;28;20719;-67
2022/07/22 09:27:49;;;;;;;6.25;4.35;;;;;;;28.18;31.76;95102.00;4982153;28;20239;-67
2022/07/22 09:30:26;;;;;;;6.60;4.18;;;;;;;28.26;31.47;95089.88;4973587;28;20238;-67
2022/07/22 09:32:54;;;;;;;5.18;4.55;;;;;;;28.35;31.83;95082.88;4992416;28;20614;-67
2022/07/22 09:35:20;;;;;;;5.53;4.32;;;;;;;28.46;32.88;95081.91;4982941;28;20274;-66
2022/07/22 09:37:50;;;;;;;6.93;4.25;;;;;;;28.54;29.62;95086.81;4975264;28;20215;-67
2022/07/22 09:40:21;;;;;;;6.15;4.63;;;;;;;28.70;31.12;95089.59;4981344;28;20232;-66
2022/07/22 09:42:50;;;;;;;4.75;4.28;;;;;;;28.79;29.42;95082.59;4978777;28;20238;-67
2022/07/22 09:45:16;;;;;;;4.75;4.35;;;;;;;28.86;29.70;95088.56;4982716;28;20290;-66
2022/07/22 09:47:42;;;;;;;4.10;3.80;;;;;;;29.01;29.19;95083.22;4977027;28;20232;-67
2022/07/22 09:50:23;;;;;;;6.20;4.40;;;;;;;29.08;28.34;95087.59;4974947;28;20208;-67
2022/07/22 09:52:51;;;;;;;4.93;4.50;;;;;;;29.18;27.87;95085.72;4982503;28;20204;-66
2022/07/22 09:55:18;;;;;;;10.43;4.68;;;;;;;29.31;27.95;95087.09;4971250;28;20238;-66
2022/07/22 09:57:44;;;;;;;4.43;4.03;;;;;;;29.35;28.50;95071.97;4981142;28;20220;-67
2022/07/22 10:00:12;;;;;;;11.07;4.47;;;;;;;29.51;27.63;95070.09;4983288;28;20232;-66
2022/07/22 10:02:50;;;;;;;6.45;4.20;;;;;;;29.48;27.54;95075.22;4983287;28;20250;-64
2022/07/22 10:05:20;;;;;;;5.82;4.45;;;;;;;29.63;28.54;95076.03;4977484;28;20314;-66
2022/07/22 10:07:47;;;;;;;5.28;4.07;;;;;;;29.77;28.11;95075.53;4975126;28;20294;-66
2022/07/22 10:10:17;;;;;;;5.80;4.72;;;;;;;29.96;27.40;95079.31;4978824;28;20223;-65
2022/07/22 10:12:45;;;;;;;6.13;4.25;;;;;;;30.09;26.97;95062.50;4980890;28;20228;-64
2022/07/22 10:15:11;;;;;;;7.38;4.57;;;;;;;30.17;25.49;95065.75;4970298;28;20257;-71
2022/07/22 10:17:42;;;;;;;4.75;4.05;;;;;;;30.26;27.14;95064.13;4975079;28;20237;-66
2022/07/22 10:20:08;;;;;;;4.63;4.22;;;;;;;30.52;25.87;95065.69;4975233;28;20216;-67
2022/07/22 10:22:41;;;;;;;6.05;4.20;;;;;;;30.78;25.12;95055.53;4976306;28;20207;-66
2022/07/22 10:25:08;;;;;;;5.22;4.13;;;;;;;30.84;24.93;95050.94;4981372;28;20227;-66
2022/07/22 10:28:15;;;;;;;6.68;4.78;;;;;;;31.06;25.69;95056.00;4981207;28;20235;-66
2022/07/22 10:30:41;;;;;;;5.50;4.43;;;;;;;31.31;25.10;95048.78;4923749;29;20236;-66
2022/07/22 10:33:12;;;;;;;5.63;4.80;;;;;;;31.51;24.76;95054.09;4925229;29;20292;-65
2022/07/22 10:35:43;;;;;;;4.82;4.32;;;;;;;31.47;24.94;95046.81;4927874;29;20316;-68
2022/07/22 10:38:13;;;;;;;5.50;4.57;;;;;;;31.70;24.61;95048.78;4938299;29;20217;-64
2022/07/22 10:40:49;;;;;;;6.03;4.78;;;;;;;31.85;24.77;95048.66;4936038;29;20248;-67
2022/07/22 10:43:16;;;;;;;6.72;4.63;;;;;;;32.03;24.25;95057.25;4936991;29;20241;-66
2022/07/22 10:45:51;;;;;;;7.07;4.57;;;;;;;32.15;23.43;95051.41;4935364;28;20235;-65
2022/07/22 10:48:30;;;;;;;5.03;4.45;;;;;;;32.08;23.75;95044.41;4927107;29;20232;-64
2022/07/22 10:51:13;;;;;;;5.65;4.00;;;;;;;32.19;23.75;95044.31;4942489;29;20236;-66
2022/07/22 10:53:51;;;;;;;5.85;4.35;;;;;;;32.34;23.44;95048.78;4942205;29;20229;-65
2022/07/22 10:56:23;;;;;;;6.32;4.43;;;;;;;32.40;22.69;95051.16;4929503;29;20854;-65
2022/07/22 10:58:56;;;;;;;4.90;4.40;;;;;;;32.38;22.86;95047.91;4923880;29;20209;-67
2022/07/22 11:01:25;;;;;;;6.97;4.10;;;;;;;32.55;23.35;95046.66;4928399;29;20242;-66
2022/07/22 11:03:51;;;;;;;4.93;3.95;;;;;;;32.63;22.92;95046.03;4936797;29;20251;-66
2022/07/22 11:06:26;;;;;;;4.85;4.38;;;;;;;32.77;22.28;95051.56;4932045;28;20227;-66
2022/07/22 11:08:55;;;;;;;5.53;4.70;;;;;;;32.92;22.30;95046.75;4985816;28;20229;-67
2022/07/22 11:11:44;;;;;;;5.57;4.13;;;;;;;32.92;22.32;95048.66;4986024;28;20251;-66
2022/07/22 11:14:17;;;;;;;6.78;4.43;;;;;;;33.06;21.98;95048.78;4986480;28;20211;-65
2022/07/22 11:16:44;;;;;;;4.47;4.07;;;;;;;33.10;21.85;95047.09;4987149;28;20579;-70
2022/07/22 11:19:10;;;;;;;6.78;4.43;;;;;;;33.32;22.26;95041.06;4984562;28;20223;-68
2022/07/22 11:21:36;;;;;;;5.45;4.03;;;;;;;33.43;21.51;95045.25;4984504;28;20499;-70
2022/07/22 11:24:04;;;;;;;4.93;4.03;;;;;;;33.52;21.01;95046.22;4981522;28;20224;-68
2022/07/22 11:26:35;;;;;;;5.03;3.75;;;;;;;33.77;21.08;95045.03;4986380;28;20226;-69
2022/07/22 11:29:01;;;;;;;5.68;4.00;;;;;;;33.91;21.35;95038.81;4984285;28;20227;-67
2022/07/22 11:31:27;;;;;;;4.72;3.63;;;;;;;34.02;21.82;95035.59;4990504;28;20301;-70